Latest Weather Observations for Broome Port

IDW60801

Issued at 10:35 pm WST Friday 31 October 2014 (issued every 30 minutes, with the page automatically refreshed every 10 minutes)

About weather observations | Map of weather stations | Latest weather observations for WA | Other Formats
Station Details ID: 003102 Name: BROOME NTC AWS Lat: -18.00 Lon: 122.22 Height: 0.0 m
Data from the previous 72 hours. | See also: Recent months for locations in Western Australia
Date/Time
WST
Temp
°C
App
Temp
°C
Dew
Point
Rel
Hum
%
Delta-T
°C
Wind Press
QNH
hPa
Press
MSL
hPa
Rain
since 9 am
mm
Dir
 
Spd
km/h
Gust
km/h
Spd
kts
Gust
kts
31/10:30pm 29.5 - - - - NNW 15 20 8 11 1007.4 1007.3 -
31/10:00pm 29.5 - - - - N 15 20 8 11 1007.4 1007.3 -
31/09:30pm 29.4 - - - - N 17 22 9 12 1007.4 1007.3 -
31/09:00pm 30.0 - - - - N 19 22 10 12 1007.2 1007.1 -
31/08:30pm 29.8 - - - - NNW 20 26 11 14 1007.0 1006.9 -
31/08:00pm 30.0 - - - - NNW 19 28 10 15 1006.8 1006.7 -
31/07:30pm 29.6 - - - - NNW 22 28 12 15 1006.5 1006.4 -
31/07:00pm 29.6 - - - - NNW 22 28 12 15 1006.1 1006.0 -
31/06:30pm 29.5 - - - - NNW 26 32 14 17 1005.5 1005.4 -
31/06:00pm 29.8 - - - - NNW 30 37 16 20 1004.9 1004.8 -
31/05:30pm 30.2 - - - - NNW 30 37 16 20 1004.6 1004.5 -
31/05:00pm 30.4 - - - - NNW 32 43 17 23 1004.2 1004.1 -
31/04:30pm 30.8 - - - - NNW 35 43 19 23 1003.9 1003.8 -
31/04:00pm 30.8 - - - - NNW 37 48 20 26 1003.7 1003.6 -
31/03:30pm 30.8 - - - - NNW 39 46 21 25 1003.4 1003.3 -
31/03:00pm 31.3 - - - - NNW 35 43 19 23 1003.6 1003.5 -
31/02:30pm 31.0 - - - - NNW 30 37 16 20 1003.8 1003.7 -
31/02:00pm 30.6 - - - - N 30 35 16 19 1004.1 1004.0 -
31/01:30pm 30.5 - - - - NNW 30 35 16 19 1004.4 1004.3 -
31/01:00pm 30.1 - - - - NNW 28 35 15 19 1004.8 1004.7 -
31/12:30pm 30.0 - - - - NNW 28 35 15 19 1005.1 1005.0 -
31/12:00pm 30.0 - - - - NNW 26 32 14 17 1005.8 1005.7 -
31/11:30am 30.1 - - - - N 22 26 12 14 1006.2 1006.1 -
31/11:00am 30.3 - - - - NW 17 22 9 12 1006.5 1006.4 -
31/10:30am 29.4 - - - - NNW 20 24 11 13 1006.9 1006.8 -
31/10:00am 29.3 - - - - NW 22 30 12 16 1007.2 1007.1 -
31/09:30am 29.3 - - - - NW 22 30 12 16 1007.4 1007.3 -
31/09:00am 29.2 - - - - NW 22 28 12 15 1007.6 1007.5 -
31/08:30am 29.3 - - - - NW 22 28 12 15 1007.7 1007.6 -
31/08:00am 29.0 - - - - NW 26 30 14 16 1007.6 1007.5 -
31/07:30am 29.2 - - - - NW 22 28 12 15 1007.6 1007.5 -
31/07:00am 28.9 - - - - NW 22 26 12 14 1007.3 1007.2 -
31/06:30am 28.9 - - - - NW 20 26 11 14 1007.1 1007.0 -
31/06:00am 28.5 - - - - NW 19 20 10 11 1006.8 1006.7 -
31/05:30am 28.3 - - - - NW 17 20 9 11 1006.5 1006.4 -
31/05:00am 28.2 - - - - NW 15 17 8 9 1006.3 1006.2 -
31/04:30am 28.2 - - - - NW 17 20 9 11 1006.1 1006.0 -
31/04:00am 28.4 - - - - WNW 19 22 10 12 1005.7 1005.6 -
31/03:30am 28.2 - - - - WNW 19 22 10 12 1005.6 1005.5 -
31/03:00am 28.2 - - - - WNW 20 24 11 13 1005.4 1005.3 -
31/02:30am 28.2 - - - - WNW 20 26 11 14 1005.2 1005.1 -
31/02:00am 28.2 - - - - WNW 22 26 12 14 1005.4 1005.3 -
31/01:30am 28.1 - - - - WNW 20 26 11 14 1005.7 1005.6 -
31/01:00am 28.3 - - - - WNW 17 20 9 11 1005.8 1005.7 -
31/12:30am 28.2 - - - - WNW 17 20 9 11 1006.0 1005.9 -
31/12:00am 28.1 - - - - WNW 17 20 9 11 1006.4 1006.3 -
 
Date/Time
WST
Temp
°C
App
Temp
°C
Dew
Point
Rel
Hum
%
Delta-T
°C
Wind Press
QNH
hPa
Press
MSL
hPa
Rain
since 9 am
mm
Dir
 
Spd
km/h
Gust
km/h
Spd
kts
Gust
kts
30/11:30pm 28.1 - - - - W 17 22 9 12 1006.8 1006.7 -
30/11:00pm 28.1 - - - - WNW 19 22 10 12 1007.2 1007.1 -
30/10:30pm 28.0 - - - - WNW 19 22 10 12 1007.4 1007.3 -
30/10:00pm 27.9 - - - - WNW 17 20 9 11 1007.5 1007.4 -
30/09:30pm 27.9 - - - - NW 15 19 8 10 1007.8 1007.7 -
30/09:00pm 28.0 - - - - WNW 19 22 10 12 1007.6 1007.5 -
30/08:30pm 27.9 - - - - NW 19 24 10 13 1007.3 1007.2 -
30/08:00pm 27.9 - - - - NW 17 24 9 13 1007.3 1007.2 -
30/07:30pm 27.8 - - - - NW 22 28 12 15 1007.0 1006.9 -
30/07:00pm 27.9 - - - - NW 19 30 10 16 1006.7 1006.6 -
30/06:30pm 27.9 - - - - NW 33 39 18 21 1006.0 1005.9 -
30/06:00pm 27.9 - - - - NW 32 39 17 21 1005.6 1005.5 -
30/05:30pm 28.1 - - - - NW 32 39 17 21 1005.5 1005.4 -
30/05:00pm 28.2 - - - - NW 37 43 20 23 1005.2 1005.1 -
30/04:30pm 28.1 - - - - NW 37 41 20 22 1005.0 1004.9 -
30/04:00pm 28.2 - - - - NW 35 39 19 21 1005.2 1005.1 -
30/03:30pm 28.1 - - - - NW 35 39 19 21 1005.3 1005.2 -
30/03:00pm 28.1 - - - - NW 30 35 16 19 1005.7 1005.6 -
30/02:30pm 28.3 - - - - NW 28 32 15 17 1006.1 1006.0 -
30/02:00pm 28.1 - - - - NW 24 30 13 16 1006.3 1006.2 -
30/01:30pm 28.1 - - - - NW 24 30 13 16 1006.7 1006.6 -
30/01:00pm 28.0 - - - - NW 22 28 12 15 1007.0 1006.9 -
30/12:30pm 27.9 - - - - WNW 22 28 12 15 1007.3 1007.2 -
30/12:00pm 28.0 - - - - WNW 19 26 10 14 1007.6 1007.5 -
30/11:30am 27.9 - - - - WNW 22 28 12 15 1008.0 1007.9 -
30/11:00am 27.9 - - - - WNW 20 28 11 15 1008.4 1008.3 -
30/10:30am 28.2 - - - - WNW 19 26 10 14 1008.8 1008.7 -
30/10:00am 28.2 - - - - WNW 17 22 9 12 1009.2 1009.1 -
30/09:30am 28.4 - - - - WNW 13 19 7 10 1009.6 1009.5 -
30/09:00am 28.4 - - - - W 11 17 6 9 1009.8 1009.7 -
30/08:30am 28.2 - - - - W 9 13 5 7 1010.0 1009.9 -
30/08:00am 28.0 - - - - W 11 15 6 8 1009.9 1009.8 -
30/07:30am 28.0 - - - - W 11 13 6 7 1009.8 1009.7 -
30/07:00am 27.8 - - - - WSW 13 19 7 10 1009.5 1009.4 -
30/06:30am 27.6 - - - - W 11 17 6 9 1009.3 1009.2 -
30/06:00am 27.3 - - - - W 13 19 7 10 1009.0 1008.9 -
30/05:30am 27.3 - - - - W 15 19 8 10 1008.8 1008.7 -
30/05:00am 27.4 - - - - W 19 24 10 13 1008.3 1008.2 -
30/04:30am 27.3 - - - - W 15 20 8 11 1008.2 1008.1 -
30/04:00am 27.3 - - - - W 20 26 11 14 1008.2 1008.1 -
30/03:30am 27.2 - - - - W 15 20 8 11 1008.1 1008.0 -
30/03:00am 27.3 - - - - W 19 22 10 12 1008.0 1007.9 -
30/02:30am 27.2 - - - - W 19 24 10 13 1007.8 1007.7 -
30/02:00am 27.4 - - - - W 20 24 11 13 1008.1 1008.0 -
30/01:30am 27.4 - - - - W 20 26 11 14 1008.5 1008.4 -
30/01:00am 27.4 - - - - WNW 20 26 11 14 1008.7 1008.6 -
30/12:30am 27.4 - - - - WNW 22 28 12 15 1008.9 1008.8 -
30/12:00am 27.4 - - - - WNW 24 28 13 15 1009.1 1009.0 -
 
Date/Time
WST
Temp
°C
App
Temp
°C
Dew
Point
Rel
Hum
%
Delta-T
°C
Wind Press
QNH
hPa
Press
MSL
hPa
Rain
since 9 am
mm
Dir
 
Spd
km/h
Gust
km/h
Spd
kts
Gust
kts
29/11:30pm 27.4 - - - - NW 24 30 13 16 1009.3 1009.2 -
29/11:00pm 27.5 - - - - WNW 24 30 13 16 1009.5 1009.4 -
29/10:30pm 27.6 - - - - WNW 24 30 13 16 1009.7 1009.6 -
29/10:00pm 27.7 - - - - NW 26 32 14 17 1009.9 1009.8 -
29/09:30pm 27.8 - - - - WNW 22 26 12 14 1010.0 1009.9 -
29/09:00pm 27.9 - - - - WNW 22 26 12 14 1009.9 1009.8 -
29/08:30pm 27.9 - - - - WNW 20 24 11 13 1009.9 1009.8 -
29/08:00pm 28.0 - - - - WNW 22 30 12 16 1009.7 1009.6 -
29/07:30pm 28.1 - - - - WNW 22 28 12 15 1009.5 1009.4 -
29/07:00pm 28.1 - - - - WNW 26 30 14 16 1009.2 1009.1 -
29/06:30pm 28.1 - - - - NW 24 28 13 15 1009.0 1008.9 -
29/06:00pm 28.0 - - - - NW 24 30 13 16 1009.0 1008.9 -
29/05:30pm 28.2 - - - - NW 26 32 14 17 1009.0 1008.9 -
29/05:00pm 28.4 - - - - NW 30 33 16 18 1009.0 1008.9 -
29/04:30pm 28.5 - - - - NW 32 37 17 20 1008.6 1008.5 -
29/04:00pm 28.8 - - - - NW 30 35 16 19 1008.4 1008.3 -
29/03:30pm 28.8 - - - - NW 28 35 15 19 1008.2 1008.1 -
29/03:00pm 29.3 - - - - WNW 26 32 14 17 1008.5 1008.4 -
29/02:30pm 29.3 - - - - WNW 24 30 13 16 1008.6 1008.5 -
29/02:00pm 29.5 - - - - WNW 22 28 12 15 1008.9 1008.8 -
29/01:30pm 30.0 - - - - NW 19 24 10 13 1009.3 1009.2 -
29/01:00pm 29.2 - - - - NW 22 28 12 15 1009.7 1009.6 -
29/12:30pm 29.0 - - - - NW 19 22 10 12 1010.3 1010.2 -
29/12:00pm 28.4 - - - - NW 20 24 11 13 1010.7 1010.6 -
29/11:30am 28.1 - - - - WNW 26 30 14 16 1010.9 1010.8 -
29/11:00am 27.9 - - - - WNW 24 30 13 16 1011.3 1011.2 -
29/10:30am 27.9 - - - - WNW 22 26 12 14 1011.7 1011.6 -
29/10:00am 28.4 - - - - NW 19 22 10 12 1011.9 1011.8 -
29/09:30am 28.2 - - - - NW 19 22 10 12 1011.8 1011.7 -
29/09:00am 28.0 - - - - WNW 17 20 9 11 1011.7 1011.6 -
29/08:30am 27.9 - - - - NW 17 20 9 11 1011.6 1011.5 -
29/08:00am 27.8 - - - - NW 17 20 9 11 1011.6 1011.5 -
29/07:30am 27.6 - - - - WNW 13 17 7 9 1011.3 1011.2 -
29/07:00am 27.3 - - - - W 11 15 6 8 1011.2 1011.1 -
29/06:30am 27.2 - - - - WSW 11 15 6 8 1011.2 1011.1 -
29/06:00am 27.1 - - - - SW 17 20 9 11 1011.1 1011.0 -
29/05:30am 27.3 - - - - SW 17 20 9 11 1010.8 1010.7 -
29/05:00am 27.2 - - - - WSW 19 24 10 13 1010.6 1010.5 -
29/04:30am 27.3 - - - - SW 20 24 11 13 1010.2 1010.1 -
29/04:00am 27.4 - - - - WSW 22 26 12 14 1009.6 1009.5 -
29/03:30am 27.4 - - - - SW 22 28 12 15 1009.7 1009.6 -
29/03:00am 27.9 - - - - WSW 19 22 10 12 1009.5 1009.4 -
29/02:30am 27.9 - - - - WSW 20 24 11 13 1009.4 1009.3 -
29/02:00am 27.9 - - - - WSW 19 24 10 13 1009.3 1009.2 -
29/01:30am 27.8 - - - - WSW 19 20 10 11 1009.5 1009.4 -
29/01:00am 27.6 - - - - WSW 19 22 10 12 1009.7 1009.6 -
29/12:30am 27.5 - - - - W 17 22 9 12 1009.7 1009.6 -
29/12:00am 27.5 - - - - WNW 15 19 8 10 1010.2 1010.1 -
 
Date/Time
WST
Temp
°C
App
Temp
°C
Dew
Point
Rel
Hum
%
Delta-T
°C
Wind Press
QNH
hPa
Press
MSL
hPa
Rain
since 9 am
mm
Dir
 
Spd
km/h
Gust
km/h
Spd
kts
Gust
kts
28/11:30pm 27.4 - - - - WNW 15 19 8 10 1010.3 1010.2 -
28/11:00pm 27.4 - - - - NW 15 19 8 10 1010.5 1010.4 -

Other Formats:

Comma delimited format used in spreadsheet applications
http://www.bom.gov.au/fwo/IDW60801/IDW60801.95202.axf

JavaScript Object Notation format (JSON) in row-major order
http://www.bom.gov.au/fwo/IDW60801/IDW60801.95202.json